Time;durP1;ratioP1;P1;durP2;ratioP2;P2;SDS_P1;SDS_P2;PMS_P1;PMS_P2;Temp;Humidity;BMP_temperature;BMP_pressure;BME280_temperature;BME280_humidity;BME280_pressure;Samples;Min_cycle;Max_cycle;Signal;HPM_P1;HPM_P2
2023/12/05 00:01:13;;;;;;;13.83;11.50;;;;;;;;;;5036018;28;20174;-69
2023/12/05 00:03:39;;;;;;;13.23;11.33;;;;;;;;;;5054139;28;20170;-70
2023/12/05 00:06:10;;;;;;;13.67;11.20;;;;;;;;;;5054626;28;20178;-70
2023/12/05 00:08:36;;;;;;;17.57;12.60;;;;;;;;;;5040115;28;20602;-70
2023/12/05 00:11:08;;;;;;;15.30;11.73;;;;;;;;;;5039606;28;20269;-71
2023/12/05 00:13:34;;;;;;;12.90;10.60;;;;;;;;;;5040103;28;20633;-70
2023/12/05 00:16:01;;;;;;;14.27;11.20;;;;;;;;;;5039343;28;20628;-69
2023/12/05 00:18:27;;;;;;;12.60;10.77;;;;;;;;;;5058064;28;20253;-70
2023/12/05 00:20:53;;;;;;;14.70;10.83;;;;;;;;;;5057260;28;20178;-70
2023/12/05 00:23:19;;;;;;;14.40;10.93;;;;;;;;;;5057266;28;20183;-70
2023/12/05 00:25:45;;;;;;;13.10;11.43;;;;;;;;;;5057403;28;20257;-69
2023/12/05 00:28:11;;;;;;;13.40;11.47;;;;;;;;;;5039911;28;20348;-70
2023/12/05 00:30:37;;;;;;;13.03;11.10;;;;;;;;;;5057536;28;20175;-70
2023/12/05 00:33:03;;;;;;;14.40;11.70;;;;;;;;;;5057347;28;20671;-70
2023/12/05 00:35:29;;;;;;;13.07;10.03;;;;;;;;;;5039228;28;20599;-69
2023/12/05 00:37:55;;;;;;;15.10;10.87;;;;;;;;;;5057149;28;20206;-70
2023/12/05 00:40:21;;;;;;;13.23;11.17;;;;;;;;;;5039047;28;20182;-70
2023/12/05 00:42:47;;;;;;;13.20;11.77;;;;;;;;;;5057267;28;20174;-70
2023/12/05 00:45:14;;;;;;;14.83;11.47;;;;;;;;;;5057089;28;20182;-70
2023/12/05 00:47:41;;;;;;;14.43;11.70;;;;;;;;;;5038737;28;20289;-70
2023/12/05 00:50:07;;;;;;;11.83;10.30;;;;;;;;;;5056590;28;20232;-70
2023/12/05 00:52:33;;;;;;;14.77;11.80;;;;;;;;;;5056650;28;20182;-70
2023/12/05 00:54:59;;;;;;;13.70;11.20;;;;;;;;;;5056520;28;20200;-72
2023/12/05 00:57:25;;;;;;;12.37;10.80;;;;;;;;;;5056187;28;20206;-70
2023/12/05 00:59:51;;;;;;;13.60;11.87;;;;;;;;;;5038612;28;20178;-70
2023/12/05 01:02:17;;;;;;;13.83;10.60;;;;;;;;;;5056633;28;20202;-70
2023/12/05 01:04:43;;;;;;;14.03;11.57;;;;;;;;;;5056933;28;20170;-70
2023/12/05 01:07:12;;;;;;;13.37;11.53;;;;;;;;;;5038611;28;20623;-70
2023/12/05 01:09:38;;;;;;;12.00;10.40;;;;;;;;;;5057079;28;20578;-70
2023/12/05 01:12:04;;;;;;;17.23;11.47;;;;;;;;;;5038454;28;20191;-70
2023/12/05 01:14:30;;;;;;;16.53;11.73;;;;;;;;;;5056529;28;20182;-70
2023/12/05 01:16:56;;;;;;;13.30;10.63;;;;;;;;;;5055377;28;20210;-70
2023/12/05 01:19:22;;;;;;;12.93;11.07;;;;;;;;;;5055544;28;20547;-70
2023/12/05 01:21:48;;;;;;;14.27;11.40;;;;;;;;;;5056175;28;20178;-70
2023/12/05 01:24:14;;;;;;;14.80;11.53;;;;;;;;;;5056532;28;20174;-70
2023/12/05 01:26:40;;;;;;;15.33;11.20;;;;;;;;;;5037910;28;20225;-69
2023/12/05 01:29:06;;;;;;;13.17;10.87;;;;;;;;;;5056467;28;20254;-70
2023/12/05 01:31:32;;;;;;;13.30;10.50;;;;;;;;;;5056570;28;20183;-70
2023/12/05 01:33:58;;;;;;;14.40;11.17;;;;;;;;;;5057160;28;20182;-70
2023/12/05 01:36:26;;;;;;;13.07;11.53;;;;;;;;;;5056137;28;20206;-70
2023/12/05 01:38:52;;;;;;;12.20;9.73;;;;;;;;;;5056805;28;20273;-70
2023/12/05 01:41:19;;;;;;;15.77;11.10;;;;;;;;;;5065615;28;20183;-70
2023/12/05 01:43:45;;;;;;;15.40;11.97;;;;;;;;;;5070098;28;20263;-70
2023/12/05 01:46:11;;;;;;;14.00;11.23;;;;;;;;;;5062924;28;20672;-71
2023/12/05 01:48:37;;;;;;;17.10;12.87;;;;;;;;;;5062898;28;20244;-70
2023/12/05 01:51:05;;;;;;;11.87;10.67;;;;;;;;;;5038443;28;20182;-70
2023/12/05 01:53:31;;;;;;;15.93;12.43;;;;;;;;;;5055184;28;20171;-69
2023/12/05 01:55:57;;;;;;;14.30;11.70;;;;;;;;;;5055537;28;20694;-69
2023/12/05 01:58:23;;;;;;;15.80;12.63;;;;;;;;;;5055407;28;20190;-70
2023/12/05 02:00:49;;;;;;;17.93;12.60;;;;;;;;;;5055143;28;20179;-70
2023/12/05 02:03:15;;;;;;;14.30;11.90;;;;;;;;;;5054787;28;20189;-70
2023/12/05 02:05:41;;;;;;;14.23;12.10;;;;;;;;;;5037501;28;20227;-70
2023/12/05 02:08:09;;;;;;;13.93;11.17;;;;;;;;;;5055299;28;20275;-70
2023/12/05 02:10:35;;;;;;;14.53;11.43;;;;;;;;;;5054780;28;20671;-70
2023/12/05 02:13:01;;;;;;;13.83;11.30;;;;;;;;;;5054634;28;20174;-70
2023/12/05 02:15:27;;;;;;;14.00;11.90;;;;;;;;;;5036685;28;20185;-70
2023/12/05 02:18:13;;;;;;;15.20;11.83;;;;;;;;;;5054577;28;20684;-70
2023/12/05 02:20:54;;;;;;;14.20;11.70;;;;;;;;;;5040446;28;20201;-70
2023/12/05 02:23:42;;;;;;;14.00;10.83;;;;;;;;;;5054404;28;20530;-70
2023/12/05 02:26:21;;;;;;;14.77;12.20;;;;;;;;;;5054006;28;20178;-70
2023/12/05 02:28:47;;;;;;;13.60;10.70;;;;;;;;;;5054050;28;20174;-69
2023/12/05 02:31:13;;;;;;;15.27;11.30;;;;;;;;;;5054045;28;20262;-69
2023/12/05 02:33:40;;;;;;;14.50;10.93;;;;;;;;;;5036669;28;20186;-69
2023/12/05 02:36:13;;;;;;;13.67;11.33;;;;;;;;;;5054043;28;20222;-69
2023/12/05 02:39:04;;;;;;;13.37;10.80;;;;;;;;;;5036279;28;20257;-70
2023/12/05 02:41:30;;;;;;;10.20;8.67;;;;;;;;;;5054229;28;20656;-69
2023/12/05 02:43:59;;;;;;;12.60;11.03;;;;;;;;;;5036265;28;20231;-69
2023/12/05 02:46:25;;;;;;;14.80;11.70;;;;;;;;;;5054239;28;20190;-69
2023/12/05 02:48:52;;;;;;;13.33;10.93;;;;;;;;;;5054402;28;20208;-69
2023/12/05 02:51:18;;;;;;;13.70;10.83;;;;;;;;;;5054165;28;20193;-69
2023/12/05 02:53:44;;;;;;;14.73;11.13;;;;;;;;;;5053666;28;20589;-69
2023/12/05 02:56:10;;;;;;;14.57;11.17;;;;;;;;;;5053826;28;20202;-69
2023/12/05 02:58:36;;;;;;;14.00;10.87;;;;;;;;;;5053678;28;20179;-69
2023/12/05 03:01:02;;;;;;;13.00;11.40;;;;;;;;;;5053581;28;20174;-69
2023/12/05 03:03:28;;;;;;;13.90;11.17;;;;;;;;;;5035497;28;20187;-70
2023/12/05 03:05:54;;;;;;;15.37;10.67;;;;;;;;;;5053152;28;20174;-71
2023/12/05 03:08:20;;;;;;;13.03;9.77;;;;;;;;;;5053238;28;20214;-70
2023/12/05 03:10:46;;;;;;;12.57;10.73;;;;;;;;;;5053440;28;20197;-70
2023/12/05 03:13:12;;;;;;;12.83;10.77;;;;;;;;;;5035401;28;20178;-70
2023/12/05 03:15:38;;;;;;;14.10;11.10;;;;;;;;;;5053094;28;20591;-70
2023/12/05 03:18:04;;;;;;;14.57;11.63;;;;;;;;;;5053088;28;20217;-71
2023/12/05 03:20:30;;;;;;;12.20;10.07;;;;;;;;;;5053059;28;20637;-70
2023/12/05 03:22:56;;;;;;;14.53;11.07;;;;;;;;;;5053193;28;20236;-70
2023/12/05 03:25:22;;;;;;;15.23;12.10;;;;;;;;;;5035131;28;20224;-70
2023/12/05 03:27:48;;;;;;;12.60;11.30;;;;;;;;;;5052714;28;20649;-70
2023/12/05 03:30:14;;;;;;;16.07;11.63;;;;;;;;;;5053438;28;20692;-70
2023/12/05 03:32:40;;;;;;;15.20;12.00;;;;;;;;;;5035465;28;20527;-71
2023/12/05 03:35:06;;;;;;;13.70;11.27;;;;;;;;;;5035014;28;20182;-70
2023/12/05 03:37:32;;;;;;;13.60;10.87;;;;;;;;;;5053105;28;20214;-70
2023/12/05 03:39:58;;;;;;;13.40;10.80;;;;;;;;;;5035664;28;20178;-69
2023/12/05 03:42:24;;;;;;;14.03;11.33;;;;;;;;;;5055942;28;20205;-70
2023/12/05 03:44:50;;;;;;;14.63;11.30;;;;;;;;;;5057127;28;20258;-70
2023/12/05 03:47:16;;;;;;;13.83;11.20;;;;;;;;;;5056987;28;20199;-70
2023/12/05 03:49:42;;;;;;;13.97;11.20;;;;;;;;;;5057102;28;20174;-70
2023/12/05 03:52:08;;;;;;;12.70;10.20;;;;;;;;;;5056734;28;20217;-70
2023/12/05 03:54:33;;;;;;;13.33;10.47;;;;;;;;;;5056698;28;20240;-71
2023/12/05 03:56:59;;;;;;;13.30;10.37;;;;;;;;;;5056496;28;20237;-70
2023/12/05 03:59:25;;;;;;;12.67;10.33;;;;;;;;;;5056669;28;20182;-70
2023/12/05 04:01:51;;;;;;;12.43;10.43;;;;;;;;;;5056837;28;20333;-70
2023/12/05 04:04:17;;;;;;;15.13;9.63;;;;;;;;;;5038784;28;20210;-71
2023/12/05 04:06:43;;;;;;;12.97;10.70;;;;;;;;;;5056744;28;20202;-70
2023/12/05 04:09:09;;;;;;;12.37;9.83;;;;;;;;;;5056566;28;20181;-70
2023/12/05 04:11:35;;;;;;;12.27;10.57;;;;;;;;;;5056472;28;20210;-70
2023/12/05 04:14:01;;;;;;;12.53;9.73;;;;;;;;;;5056686;28;20178;-70
2023/12/05 04:16:27;;;;;;;13.13;10.23;;;;;;;;;;5038406;28;20245;-70
2023/12/05 04:18:54;;;;;;;12.53;10.10;;;;;;;;;;5056257;28;20175;-71
2023/12/05 04:21:20;;;;;;;12.53;10.40;;;;;;;;;;5038467;28;20185;-70
2023/12/05 04:23:46;;;;;;;14.17;11.03;;;;;;;;;;5056249;28;20257;-70
2023/12/05 04:26:17;;;;;;;16.23;10.30;;;;;;;;;;5056025;28;20202;-70
2023/12/05 04:28:43;;;;;;;12.53;10.10;;;;;;;;;;5056514;28;20273;-70
2023/12/05 04:31:09;;;;;;;13.67;10.70;;;;;;;;;;5056658;28;20228;-70
2023/12/05 04:33:35;;;;;;;11.93;10.57;;;;;;;;;;5038261;28;20186;-70
2023/12/05 04:36:01;;;;;;;13.77;11.00;;;;;;;;;;5056432;28;20225;-69
2023/12/05 04:38:28;;;;;;;12.00;10.33;;;;;;;;;;5055915;28;20175;-70
2023/12/05 04:40:54;;;;;;;12.80;10.40;;;;;;;;;;5055900;28;20186;-70
2023/12/05 04:43:20;;;;;;;13.00;10.17;;;;;;;;;;5038075;28;20182;-70
2023/12/05 04:45:46;;;;;;;13.60;10.33;;;;;;;;;;5055783;28;20179;-70
2023/12/05 04:48:12;;;;;;;13.43;11.00;;;;;;;;;;5037890;28;20199;-71
2023/12/05 04:50:39;;;;;;;14.37;11.13;;;;;;;;;;5037843;28;20179;-70
2023/12/05 04:53:05;;;;;;;14.87;10.77;;;;;;;;;;5037763;28;20178;-70
2023/12/05 04:55:30;;;;;;;12.93;11.17;;;;;;;;;;5037885;28;20178;-70
2023/12/05 04:57:57;;;;;;;13.10;10.70;;;;;;;;;;5037768;28;20222;-70
2023/12/05 05:00:23;;;;;;;17.17;11.33;;;;;;;;;;5037910;28;20186;-70
2023/12/05 05:02:49;;;;;;;15.90;11.50;;;;;;;;;;5037978;28;20182;-71
2023/12/05 05:05:15;;;;;;;13.43;11.20;;;;;;;;;;5055853;28;20179;-70
2023/12/05 05:07:41;;;;;;;15.17;11.53;;;;;;;;;;5055579;28;20702;-70
2023/12/05 05:10:07;;;;;;;14.23;10.57;;;;;;;;;;5056218;28;20181;-70
2023/12/05 05:12:33;;;;;;;13.77;10.10;;;;;;;;;;5055464;28;20187;-70
2023/12/05 05:14:59;;;;;;;17.47;11.00;;;;;;;;;;5055481;28;20183;-70
2023/12/05 05:17:25;;;;;;;13.30;10.40;;;;;;;;;;5055261;28;20238;-70
2023/12/05 05:19:51;;;;;;;14.20;11.23;;;;;;;;;;5037602;28;20565;-70
2023/12/05 05:22:17;;;;;;;12.70;9.63;;;;;;;;;;5056753;28;20709;-70
2023/12/05 05:24:42;;;;;;;14.17;10.93;;;;;;;;;;5055629;28;20253;-69
2023/12/05 05:27:08;;;;;;;13.03;10.77;;;;;;;;;;5037227;28;20221;-70
2023/12/05 05:29:34;;;;;;;16.10;10.87;;;;;;;;;;5055336;28;20205;-70
2023/12/05 05:32:00;;;;;;;14.13;10.20;;;;;;;;;;5055556;28;20178;-70
2023/12/05 05:34:26;;;;;;;15.47;11.30;;;;;;;;;;5055012;28;20529;-70
2023/12/05 05:36:52;;;;;;;14.20;10.47;;;;;;;;;;5037839;28;20636;-70
2023/12/05 05:39:18;;;;;;;13.50;10.97;;;;;;;;;;5055104;28;20555;-70
2023/12/05 05:41:44;;;;;;;14.30;10.87;;;;;;;;;;5055456;28;20171;-70
2023/12/05 05:44:10;;;;;;;13.27;10.97;;;;;;;;;;5037323;28;20205;-70
2023/12/05 05:46:36;;;;;;;13.23;10.63;;;;;;;;;;5037182;28;20210;-70
2023/12/05 05:49:02;;;;;;;15.00;11.10;;;;;;;;;;5037341;28;20213;-70
2023/12/05 05:51:28;;;;;;;16.17;11.53;;;;;;;;;;5055055;28;20178;-70
2023/12/05 05:53:55;;;;;;;15.97;11.80;;;;;;;;;;5055052;28;20231;-70
2023/12/05 05:56:22;;;;;;;17.00;12.87;;;;;;;;;;5055184;28;20213;-71
2023/12/05 05:58:48;;;;;;;17.37;12.20;;;;;;;;;;5054702;28;20174;-70
2023/12/05 06:01:14;;;;;;;16.83;11.97;;;;;;;;;;5054814;28;20261;-70
2023/12/05 06:03:41;;;;;;;16.17;12.50;;;;;;;;;;5036478;28;20182;-70
2023/12/05 06:06:07;;;;;;;15.23;12.33;;;;;;;;;;5036581;28;20178;-70
2023/12/05 06:08:33;;;;;;;15.60;12.33;;;;;;;;;;5054416;28;20645;-70
2023/12/05 06:10:59;;;;;;;18.07;12.80;;;;;;;;;;5054364;28;20722;-71
2023/12/05 06:13:25;;;;;;;15.47;12.37;;;;;;;;;;5037237;28;20288;-71
2023/12/05 06:15:51;;;;;;;19.90;13.47;;;;;;;;;;5054320;28;20178;-71
2023/12/05 06:18:17;;;;;;;17.63;13.37;;;;;;;;;;5036431;28;20216;-71
2023/12/05 06:20:43;;;;;;;21.23;14.53;;;;;;;;;;5036320;28;20175;-71
2023/12/05 06:23:10;;;;;;;17.60;12.50;;;;;;;;;;5054123;28;20178;-71
2023/12/05 06:25:36;;;;;;;19.10;12.90;;;;;;;;;;5054107;28;20711;-71
2023/12/05 06:28:02;;;;;;;15.93;12.20;;;;;;;;;;5054065;28;20309;-71
2023/12/05 06:30:28;;;;;;;16.57;12.87;;;;;;;;;;5036099;28;20179;-71
2023/12/05 06:32:54;;;;;;;17.23;12.90;;;;;;;;;;5054456;28;20189;-71
2023/12/05 06:35:19;;;;;;;19.37;12.83;;;;;;;;;;5054098;28;20178;-71
2023/12/05 06:37:46;;;;;;;22.83;14.17;;;;;;;;;;5036099;28;20688;-71
2023/12/05 06:40:12;;;;;;;23.90;14.77;;;;;;;;;;5055290;28;20178;-71
2023/12/05 06:42:40;;;;;;;24.47;14.40;;;;;;;;;;5054458;28;20182;-70
2023/12/05 06:45:06;;;;;;;19.93;13.03;;;;;;;;;;5053812;28;20182;-71
2023/12/05 06:47:32;;;;;;;18.93;14.13;;;;;;;;;;5036183;28;20655;-71
2023/12/05 06:50:01;;;;;;;18.63;13.40;;;;;;;;;;5053676;28;20174;-71
2023/12/05 06:52:28;;;;;;;16.80;12.33;;;;;;;;;;5053579;28;20179;-71
2023/12/05 06:54:54;;;;;;;16.80;11.90;;;;;;;;;;5053453;28;20175;-71
2023/12/05 06:57:20;;;;;;;15.10;11.13;;;;;;;;;;5053236;28;20211;-71
2023/12/05 06:59:45;;;;;;;17.63;11.97;;;;;;;;;;5035698;28;20214;-71
2023/12/05 07:02:11;;;;;;;15.43;11.67;;;;;;;;;;5035542;28;20183;-71
2023/12/05 07:04:37;;;;;;;18.77;13.03;;;;;;;;;;5053525;28;20170;-71
2023/12/05 07:07:03;;;;;;;19.80;12.73;;;;;;;;;;5053315;28;20194;-71
2023/12/05 07:09:30;;;;;;;17.80;12.93;;;;;;;;;;5053313;28;20177;-71
2023/12/05 07:11:56;;;;;;;15.57;12.17;;;;;;;;;;5035589;28;20189;-71
2023/12/05 07:14:22;;;;;;;17.70;12.37;;;;;;;;;;5053486;28;20257;-71
2023/12/05 07:16:48;;;;;;;16.70;12.07;;;;;;;;;;5053028;28;20292;-71
2023/12/05 07:19:14;;;;;;;20.30;12.07;;;;;;;;;;5053205;28;20297;-71
2023/12/05 07:21:40;;;;;;;18.10;11.73;;;;;;;;;;5035270;28;20186;-71
2023/12/05 07:24:06;;;;;;;15.40;11.80;;;;;;;;;;5053065;28;20180;-71
2023/12/05 07:26:32;;;;;;;14.83;11.23;;;;;;;;;;5052947;28;20206;-71
2023/12/05 07:28:58;;;;;;;16.57;11.50;;;;;;;;;;5054425;28;20626;-71
2023/12/05 07:31:24;;;;;;;18.90;12.23;;;;;;;;;;5053491;28;20656;-71
2023/12/05 07:33:50;;;;;;;17.30;12.73;;;;;;;;;;5053227;28;20187;-71
2023/12/05 07:36:16;;;;;;;18.70;13.73;;;;;;;;;;5052976;28;20561;-71
2023/12/05 07:38:42;;;;;;;17.83;13.30;;;;;;;;;;5053128;28;20178;-71
2023/12/05 07:41:17;;;;;;;19.40;12.10;;;;;;;;;;5035010;28;20194;-71
2023/12/05 07:43:43;;;;;;;19.33;12.37;;;;;;;;;;5053393;28;20650;-71
2023/12/05 07:46:09;;;;;;;19.00;12.73;;;;;;;;;;5053190;28;20605;-71
2023/12/05 07:48:35;;;;;;;17.03;12.97;;;;;;;;;;5053369;28;20179;-71
2023/12/05 07:51:01;;;;;;;17.80;12.23;;;;;;;;;;5053242;28;20257;-71
2023/12/05 07:53:27;;;;;;;17.80;12.90;;;;;;;;;;5053212;28;20285;-71
2023/12/05 07:55:53;;;;;;;19.43;13.83;;;;;;;;;;5054152;28;20205;-71
2023/12/05 07:58:18;;;;;;;18.77;12.43;;;;;;;;;;5053438;28;20648;-71
2023/12/05 08:00:44;;;;;;;17.03;12.27;;;;;;;;;;5035035;28;20179;-71
2023/12/05 08:03:13;;;;;;;15.73;11.87;;;;;;;;;;5053668;28;20693;-71
2023/12/05 08:05:39;;;;;;;16.50;12.93;;;;;;;;;;5054148;28;20648;-71
2023/12/05 08:08:05;;;;;;;19.80;13.60;;;;;;;;;;5053345;28;20214;-71
2023/12/05 08:10:31;;;;;;;21.93;15.17;;;;;;;;;;5034935;28;20194;-71
2023/12/05 08:12:57;;;;;;;17.93;14.50;;;;;;;;;;5053684;28;20547;-71
2023/12/05 08:15:23;;;;;;;19.90;14.07;;;;;;;;;;5035059;28;20653;-71
2023/12/05 08:17:49;;;;;;;19.07;13.67;;;;;;;;;;5052644;28;20289;-71
2023/12/05 08:20:15;;;;;;;20.57;13.10;;;;;;;;;;5052767;28;20209;-71
2023/12/05 08:22:41;;;;;;;18.83;13.77;;;;;;;;;;5034913;28;20230;-71
2023/12/05 08:25:11;;;;;;;18.87;13.00;;;;;;;;;;5034733;28;20748;-71
2023/12/05 08:27:37;;;;;;;18.73;13.53;;;;;;;;;;5036241;28;20218;-71
2023/12/05 08:30:03;;;;;;;20.13;13.73;;;;;;;;;;5038719;28;20185;-71
2023/12/05 08:32:30;;;;;;;19.10;13.30;;;;;;;;;;5038387;28;20218;-71
2023/12/05 08:34:56;;;;;;;19.93;13.87;;;;;;;;;;5056174;28;20174;-71
2023/12/05 08:37:23;;;;;;;24.30;13.27;;;;;;;;;;5056055;28;20769;-71
2023/12/05 08:39:49;;;;;;;23.67;16.50;;;;;;;;;;5056285;28;20204;-71
2023/12/05 08:42:14;;;;;;;31.13;17.20;;;;;;;;;;5038260;28;20265;-71
2023/12/05 08:44:40;;;;;;;27.67;18.63;;;;;;;;;;5038337;28;20179;-69
2023/12/05 08:47:06;;;;;;;24.77;17.03;;;;;;;;;;5056738;28;20244;-69
2023/12/05 08:49:32;;;;;;;28.30;15.93;;;;;;;;;;5056362;28;20547;-69
2023/12/05 08:52:01;;;;;;;23.17;14.10;;;;;;;;;;5051178;23;20346;-71
2023/12/05 08:54:27;;;;;;;17.30;13.13;;;;;;;;;;5036894;28;20187;-71
2023/12/05 08:56:53;;;;;;;23.30;12.03;;;;;;;;;;5036052;28;20198;-71
2023/12/05 08:59:19;;;;;;;19.57;12.17;;;;;;;;;;5037467;28;20171;-70
2023/12/05 09:01:48;;;;;;;15.13;10.60;;;;;;;;;;5037431;28;20358;-73
2023/12/05 09:04:15;;;;;;;16.37;10.97;;;;;;;;;;5037924;28;20688;-72
2023/12/05 09:06:41;;;;;;;21.00;11.17;;;;;;;;;;5036016;28;20638;-72
2023/12/05 09:09:07;;;;;;;14.00;10.43;;;;;;;;;;5037844;28;20176;-71
2023/12/05 09:11:33;;;;;;;13.40;10.77;;;;;;;;;;5036781;28;20215;-71
2023/12/05 09:13:59;;;;;;;11.77;9.60;;;;;;;;;;5038877;28;20190;-72
2023/12/05 09:16:25;;;;;;;12.63;9.67;;;;;;;;;;5038806;28;20207;-73
2023/12/05 09:18:51;;;;;;;16.70;10.60;;;;;;;;;;5038788;28;20249;-71
2023/12/05 09:21:17;;;;;;;16.07;10.90;;;;;;;;;;5039551;28;20692;-72
2023/12/05 09:23:49;;;;;;;16.77;10.47;;;;;;;;;;5037951;28;20190;-73
2023/12/05 09:26:16;;;;;;;15.57;10.07;;;;;;;;;;5037875;28;20187;-72
2023/12/05 09:28:41;;;;;;;17.57;10.97;;;;;;;;;;5038184;28;20233;-71
2023/12/05 09:31:07;;;;;;;16.30;10.57;;;;;;;;;;5038043;28;20612;-72
2023/12/05 09:33:33;;;;;;;19.40;10.60;;;;;;;;;;5037106;28;20183;-71
2023/12/05 09:35:59;;;;;;;17.10;11.60;;;;;;;;;;5038588;28;20179;-72
2023/12/05 09:38:25;;;;;;;15.57;11.30;;;;;;;;;;5037345;28;20584;-72
2023/12/05 09:40:52;;;;;;;18.27;11.67;;;;;;;;;;5037364;28;20620;-71
2023/12/05 09:43:22;;;;;;;15.10;11.27;;;;;;;;;;5036195;28;20247;-71
2023/12/05 09:45:50;;;;;;;13.90;11.67;;;;;;;;;;5037841;28;20234;-71
2023/12/05 09:48:19;;;;;;;15.10;11.33;;;;;;;;;;5036452;28;20676;-72
2023/12/05 09:50:45;;;;;;;20.60;12.80;;;;;;;;;;5037315;28;20624;-74
2023/12/05 09:53:11;;;;;;;16.10;11.23;;;;;;;;;;5036350;28;20608;-71
2023/12/05 09:55:38;;;;;;;21.07;11.97;;;;;;;;;;5036842;28;20183;-72
2023/12/05 09:58:05;;;;;;;15.73;10.87;;;;;;;;;;5037314;28;20289;-72
2023/12/05 10:00:31;;;;;;;18.13;12.23;;;;;;;;;;5037569;28;20183;-72
2023/12/05 10:02:58;;;;;;;23.63;14.13;;;;;;;;;;5035747;28;20210;-73
2023/12/05 10:05:26;;;;;;;25.00;15.07;;;;;;;;;;5036153;28;20267;-71
2023/12/05 10:07:53;;;;;;;39.13;18.93;;;;;;;;;;5036740;28;20265;-68
2023/12/05 10:10:19;;;;;;;27.03;15.33;;;;;;;;;;5035118;28;20182;-68
2023/12/05 10:12:46;;;;;;;18.93;12.53;;;;;;;;;;5035067;28;20306;-70
2023/12/05 10:15:12;;;;;;;17.93;11.70;;;;;;;;;;5035943;28;20179;-67
2023/12/05 10:17:38;;;;;;;16.43;11.57;;;;;;;;;;5034929;28;20316;-69
2023/12/05 10:20:04;;;;;;;15.17;11.57;;;;;;;;;;5034921;28;20183;-67
2023/12/05 10:22:31;;;;;;;17.87;12.03;;;;;;;;;;5035029;28;20285;-68
2023/12/05 10:24:57;;;;;;;15.43;11.07;;;;;;;;;;5036146;28;20572;-68
2023/12/05 10:27:23;;;;;;;13.73;10.70;;;;;;;;;;5035033;28;20187;-68
2023/12/05 10:29:49;;;;;;;14.37;8.93;;;;;;;;;;5034685;28;20237;-68
2023/12/05 10:32:15;;;;;;;8.47;7.33;;;;;;;;;;5035259;28;20208;-67
2023/12/05 10:34:51;;;;;;;10.57;6.67;;;;;;;;;;5034766;28;20183;-69
2023/12/05 10:37:30;;;;;;;9.20;6.97;;;;;;;;;;5036016;28;20195;-71
2023/12/05 10:39:58;;;;;;;9.43;7.33;;;;;;;;;;5036261;28;20277;-71
2023/12/05 10:42:27;;;;;;;9.67;6.93;;;;;;;;;;5035928;28;20738;-68
2023/12/05 10:44:53;;;;;;;11.20;7.63;;;;;;;;;;5035809;28;20171;-68
2023/12/05 10:47:19;;;;;;;13.03;7.93;;;;;;;;;;5034593;28;20553;-69
2023/12/05 10:49:45;;;;;;;12.43;7.63;;;;;;;;;;5036377;28;20179;-70
2023/12/05 10:52:12;;;;;;;11.60;7.67;;;;;;;;;;5035996;28;20226;-68
2023/12/05 10:54:41;;;;;;;10.07;7.00;;;;;;;;;;5036000;28;20270;-68
2023/12/05 10:57:11;;;;;;;7.80;5.90;;;;;;;;;;5037844;28;20594;-68
2023/12/05 10:59:37;;;;;;;7.40;5.60;;;;;;;;;;5048083;28;20175;-69
2023/12/05 11:02:09;;;;;;;6.57;4.83;;;;;;;;;;5049627;28;20258;-69
2023/12/05 11:04:35;;;;;;;6.43;5.10;;;;;;;;;;5050722;28;20175;-69
2023/12/05 11:07:04;;;;;;;7.87;5.30;;;;;;;;;;5050422;28;20175;-69
2023/12/05 11:09:33;;;;;;;5.20;4.33;;;;;;;;;;5048652;28;20219;-69
2023/12/05 11:12:02;;;;;;;7.03;4.77;;;;;;;;;;5043787;28;20262;-68
2023/12/05 11:14:30;;;;;;;7.10;4.53;;;;;;;;;;5046750;28;20198;-68
2023/12/05 11:16:57;;;;;;;5.63;4.23;;;;;;;;;;5034263;28;20244;-70
2023/12/05 11:19:42;;;;;;;7.37;4.77;;;;;;;;;;5035277;28;20175;-68
2023/12/05 11:22:16;;;;;;;9.63;4.83;;;;;;;;;;5035809;28;20199;-69
2023/12/05 11:24:42;;;;;;;7.33;4.50;;;;;;;;;;5035033;28;20257;-69
2023/12/05 11:27:17;;;;;;;10.03;4.87;;;;;;;;;;5035308;28;20531;-70
2023/12/05 11:29:49;;;;;;;7.43;4.60;;;;;;;;;;5035211;28;20163;-68
2023/12/05 11:32:27;;;;;;;5.67;4.90;;;;;;;;;;5033036;28;20213;-68
2023/12/05 11:34:57;;;;;;;8.20;5.10;;;;;;;;;;5034753;28;20203;-67
2023/12/05 11:37:46;;;;;;;9.93;5.37;;;;;;;;;;5033499;28;20208;-69
2023/12/05 11:40:12;;;;;;;6.67;5.00;;;;;;;;;;5035141;28;20610;-68
2023/12/05 11:42:58;;;;;;;6.10;4.93;;;;;;;;;;5035059;28;20202;-70
2023/12/05 11:45:24;;;;;;;5.63;5.07;;;;;;;;;;5033486;28;20202;-67
2023/12/05 11:47:50;;;;;;;7.63;5.20;;;;;;;;;;5033584;28;20590;-68
2023/12/05 11:50:17;;;;;;;8.57;6.40;;;;;;;;;;5034932;28;20639;-67
2023/12/05 11:52:44;;;;;;;13.63;8.27;;;;;;;;;;5033855;28;20229;-68
2023/12/05 11:55:12;;;;;;;14.10;10.30;;;;;;;;;;5035029;28;20179;-67
2023/12/05 11:57:38;;;;;;;8.83;7.80;;;;;;;;;;5033738;28;20207;-68
2023/12/05 12:00:07;;;;;;;8.90;5.70;;;;;;;;;;5034178;28;20171;-71
2023/12/05 12:02:33;;;;;;;12.23;10.30;;;;;;;;;;5035117;28;20210;-67
2023/12/05 12:05:00;;;;;;;11.43;9.20;;;;;;;;;;5038019;28;20186;-68
2023/12/05 12:07:26;;;;;;;7.90;6.53;;;;;;;;;;5038526;28;20637;-69
2023/12/05 12:09:52;;;;;;;13.23;6.93;;;;;;;;;;5036849;28;20179;-69
2023/12/05 12:12:18;;;;;;;10.57;9.47;;;;;;;;;;5038649;28;20234;-68
2023/12/05 12:14:44;;;;;;;14.43;10.20;;;;;;;;;;5038447;28;20297;-67
2023/12/05 12:17:11;;;;;;;33.57;21.70;;;;;;;;;;5039002;28;20546;-68
2023/12/05 12:19:38;;;;;;;8.97;7.47;;;;;;;;;;5038843;28;20199;-69
2023/12/05 12:22:12;;;;;;;21.20;15.47;;;;;;;;;;5038478;28;20633;-71
2023/12/05 12:24:39;;;;;;;10.97;7.00;;;;;;;;;;5037247;28;20178;-68
2023/12/05 12:27:07;;;;;;;17.57;11.83;;;;;;;;;;5037183;28;20289;-67
2023/12/05 12:29:35;;;;;;;13.40;9.50;;;;;;;;;;5020956;28;20624;-69
2023/12/05 12:32:09;;;;;;;13.07;10.00;;;;;;;;;;5036711;28;20203;-69
2023/12/05 12:34:35;;;;;;;10.57;7.33;;;;;;;;;;5036748;28;20675;-68
2023/12/05 12:37:02;;;;;;;10.93;6.30;;;;;;;;;;5036451;28;20215;-66
2023/12/05 12:39:29;;;;;;;16.13;11.07;;;;;;;;;;5036720;28;20175;-68
2023/12/05 12:41:58;;;;;;;20.33;14.80;;;;;;;;;;5036953;28;20199;-66
2023/12/05 12:44:25;;;;;;;22.50;17.63;;;;;;;;;;5038216;28;20167;-68
2023/12/05 12:46:51;;;;;;;21.90;16.73;;;;;;;;;;5038361;28;20221;-68
2023/12/05 12:49:17;;;;;;;22.97;15.83;;;;;;;;;;5037699;28;20546;-69
2023/12/05 12:51:44;;;;;;;18.83;14.53;;;;;;;;;;5037653;28;20215;-69
2023/12/05 12:54:10;;;;;;;23.20;15.63;;;;;;;;;;5036614;28;20191;-68
2023/12/05 12:56:38;;;;;;;21.73;15.97;;;;;;;;;;5036535;28;20210;-70
2023/12/05 12:59:04;;;;;;;17.10;14.37;;;;;;;;;;5037851;28;20190;-69
2023/12/05 13:01:40;;;;;;;17.00;13.77;;;;;;;;;;5037734;28;20199;-67
2023/12/05 13:04:10;;;;;;;22.00;18.07;;;;;;;;;;5038416;28;20194;-67
2023/12/05 13:06:48;;;;;;;18.57;14.87;;;;;;;;;;5036590;28;20741;-69
2023/12/05 13:09:23;;;;;;;18.00;14.50;;;;;;;;;;5038083;28;20167;-66
2023/12/05 13:11:49;;;;;;;19.10;15.10;;;;;;;;;;5036451;28;20242;-68
2023/12/05 13:14:16;;;;;;;21.63;16.57;;;;;;;;;;5036195;28;20235;-68
2023/12/05 13:16:43;;;;;;;18.87;15.43;;;;;;;;;;5037569;28;20288;-69
2023/12/05 13:19:23;;;;;;;21.17;14.93;;;;;;;;;;5038080;28;20209;-69
2023/12/05 13:21:49;;;;;;;24.93;17.33;;;;;;;;;;5036380;28;20199;-68
2023/12/05 13:24:15;;;;;;;26.07;17.50;;;;;;;;;;5037328;28;20320;-68
2023/12/05 13:26:41;;;;;;;23.80;16.73;;;;;;;;;;5036223;28;20183;-67
2023/12/05 13:29:07;;;;;;;23.50;17.07;;;;;;;;;;5037614;28;20261;-68
2023/12/05 13:31:35;;;;;;;25.10;19.13;;;;;;;;;;5037442;28;20206;-68
2023/12/05 13:34:04;;;;;;;28.77;19.93;;;;;;;;;;5036127;28;20183;-68
2023/12/05 13:36:30;;;;;;;27.83;20.50;;;;;;;;;;5038476;28;20198;-69
2023/12/05 13:38:56;;;;;;;24.93;19.50;;;;;;;;;;5038800;28;20272;-69
2023/12/05 13:41:22;;;;;;;22.00;16.73;;;;;;;;;;5036248;28;20207;-68
2023/12/05 13:43:48;;;;;;;26.47;18.37;;;;;;;;;;5036063;28;20183;-68
2023/12/05 13:46:15;;;;;;;25.47;18.87;;;;;;;;;;5036012;28;20183;-68
2023/12/05 13:48:41;;;;;;;27.57;19.10;;;;;;;;;;5035980;28;20281;-67
2023/12/05 13:51:08;;;;;;;30.40;20.23;;;;;;;;;;5036958;28;20265;-68
2023/12/05 13:53:34;;;;;;;31.60;19.97;;;;;;;;;;5037974;28;20171;-68
2023/12/05 13:56:00;;;;;;;29.40;19.37;;;;;;;;;;5035612;28;20182;-68
2023/12/05 13:58:26;;;;;;;33.60;21.20;;;;;;;;;;5035664;28;20217;-68
2023/12/05 14:00:52;;;;;;;32.67;22.77;;;;;;;;;;5036674;28;20195;-68
2023/12/05 14:03:18;;;;;;;33.53;22.27;;;;;;;;;;5035740;28;20178;-68
2023/12/05 14:05:44;;;;;;;37.83;23.73;;;;;;;;;;5037259;28;20186;-68
2023/12/05 14:08:10;;;;;;;40.93;24.63;;;;;;;;;;5036928;28;20214;-68
2023/12/05 14:10:37;;;;;;;39.60;25.13;;;;;;;;;;5035833;28;20557;-70
2023/12/05 14:13:03;;;;;;;41.23;26.57;;;;;;;;;;5037132;28;20183;-68
2023/12/05 14:15:29;;;;;;;43.60;26.73;;;;;;;;;;5036913;28;20183;-68
2023/12/05 14:17:55;;;;;;;39.83;25.47;;;;;;;;;;5036079;28;20203;-69
2023/12/05 14:20:21;;;;;;;46.83;27.50;;;;;;;;;;5037171;28;20175;-68